sensor_id;sensor_type;location;lat;lon;timestamp;temperature;humidity
14555;DHT22;7364;50.870;4.722;2023-07-13T00:01:17;18.90;95.20
14555;DHT22;7364;50.870;4.722;2023-07-13T00:03:46;18.90;95.60
14555;DHT22;7364;50.870;4.722;2023-07-13T00:06:14;18.80;96.20
14555;DHT22;7364;50.870;4.722;2023-07-13T00:08:41;18.70;96.80
14555;DHT22;7364;50.870;4.722;2023-07-13T00:11:08;18.80;97.20
14555;DHT22;7364;50.870;4.722;2023-07-13T00:13:36;18.80;97.20
14555;DHT22;7364;50.870;4.722;2023-07-13T00:16:05;18.90;97.10
14555;DHT22;7364;50.870;4.722;2023-07-13T00:18:32;19.00;97.30
14555;DHT22;7364;50.870;4.722;2023-07-13T00:21:01;19.10;97.20
14555;DHT22;7364;50.870;4.722;2023-07-13T00:23:31;19.10;97.20
14555;DHT22;7364;50.870;4.722;2023-07-13T00:25:59;19.00;97.40
14555;DHT22;7364;50.870;4.722;2023-07-13T00:28:28;18.90;98.20
14555;DHT22;7364;50.870;4.722;2023-07-13T00:30:56;18.60;99.00
14555;DHT22;7364;50.870;4.722;2023-07-13T00:33:23;18.50;99.60
14555;DHT22;7364;50.870;4.722;2023-07-13T00:35:50;18.50;99.90
14555;DHT22;7364;50.870;4.722;2023-07-13T00:38:19;18.50;99.90
14555;DHT22;7364;50.870;4.722;2023-07-13T00:40:48;18.40;99.90
14555;DHT22;7364;50.870;4.722;2023-07-13T00:43:18;18.40;99.90
14555;DHT22;7364;50.870;4.722;2023-07-13T00:48:50;18.30;99.90
14555;DHT22;7364;50.870;4.722;2023-07-13T00:51:23;18.30;99.90
14555;DHT22;7364;50.870;4.722;2023-07-13T00:53:54;18.40;99.90
14555;DHT22;7364;50.870;4.722;2023-07-13T00:56:24;18.50;99.90
14555;DHT22;7364;50.870;4.722;2023-07-13T00:58:51;18.40;99.90
14555;DHT22;7364;50.870;4.722;2023-07-13T01:01:19;18.30;99.90
14555;DHT22;7364;50.870;4.722;2023-07-13T01:03:46;18.20;99.90
14555;DHT22;7364;50.870;4.722;2023-07-13T01:06:15;18.00;99.90
14555;DHT22;7364;50.870;4.722;2023-07-13T01:08:43;18.10;99.90
14555;DHT22;7364;50.870;4.722;2023-07-13T01:11:18;18.00;99.90
14555;DHT22;7364;50.870;4.722;2023-07-13T01:13:46;18.10;99.90
14555;DHT22;7364;50.870;4.722;2023-07-13T01:16:17;18.20;99.90
14555;DHT22;7364;50.870;4.722;2023-07-13T01:18:46;18.30;99.90
14555;DHT22;7364;50.870;4.722;2023-07-13T01:21:15;18.40;99.90
14555;DHT22;7364;50.870;4.722;2023-07-13T01:23:44;18.40;99.90
14555;DHT22;7364;50.870;4.722;2023-07-13T01:26:12;18.30;99.90
14555;DHT22;7364;50.870;4.722;2023-07-13T01:28:39;18.20;99.90
14555;DHT22;7364;50.870;4.722;2023-07-13T01:31:06;18.10;99.90
14555;DHT22;7364;50.870;4.722;2023-07-13T01:33:36;17.90;99.90
14555;DHT22;7364;50.870;4.722;2023-07-13T01:36:04;17.80;99.90
14555;DHT22;7364;50.870;4.722;2023-07-13T01:38:33;17.70;99.90
14555;DHT22;7364;50.870;4.722;2023-07-13T01:41:00;17.70;99.90
14555;DHT22;7364;50.870;4.722;2023-07-13T01:43:28;17.70;99.90
14555;DHT22;7364;50.870;4.722;2023-07-13T01:45:55;17.80;99.90
14555;DHT22;7364;50.870;4.722;2023-07-13T01:48:23;17.80;99.90
14555;DHT22;7364;50.870;4.722;2023-07-13T01:50:50;17.80;99.90
14555;DHT22;7364;50.870;4.722;2023-07-13T01:53:17;17.70;99.90
14555;DHT22;7364;50.870;4.722;2023-07-13T01:55:46;17.70;99.90
14555;DHT22;7364;50.870;4.722;2023-07-13T01:58:13;17.80;99.90
14555;DHT22;7364;50.870;4.722;2023-07-13T02:00:40;17.70;99.90
14555;DHT22;7364;50.870;4.722;2023-07-13T02:03:08;17.50;99.90
14555;DHT22;7364;50.870;4.722;2023-07-13T02:05:35;17.40;99.90
14555;DHT22;7364;50.870;4.722;2023-07-13T02:08:03;17.40;99.90
14555;DHT22;7364;50.870;4.722;2023-07-13T02:10:31;17.60;99.90
14555;DHT22;7364;50.870;4.722;2023-07-13T02:12:59;17.70;99.90
14555;DHT22;7364;50.870;4.722;2023-07-13T02:15:27;17.60;99.90
14555;DHT22;7364;50.870;4.722;2023-07-13T02:17:54;17.60;99.90
14555;DHT22;7364;50.870;4.722;2023-07-13T02:20:22;17.40;99.90
14555;DHT22;7364;50.870;4.722;2023-07-13T02:22:49;17.30;99.90
14555;DHT22;7364;50.870;4.722;2023-07-13T02:25:17;17.30;99.90
14555;DHT22;7364;50.870;4.722;2023-07-13T02:27:44;17.30;99.90
14555;DHT22;7364;50.870;4.722;2023-07-13T02:30:13;17.40;99.90
14555;DHT22;7364;50.870;4.722;2023-07-13T02:32:41;17.30;99.90
14555;DHT22;7364;50.870;4.722;2023-07-13T02:35:09;17.20;99.90
14555;DHT22;7364;50.870;4.722;2023-07-13T02:37:36;17.30;99.90
14555;DHT22;7364;50.870;4.722;2023-07-13T02:40:05;17.40;99.90
14555;DHT22;7364;50.870;4.722;2023-07-13T02:42:34;17.40;99.90
14555;DHT22;7364;50.870;4.722;2023-07-13T02:45:01;17.30;99.90
14555;DHT22;7364;50.870;4.722;2023-07-13T02:47:32;17.20;99.90
14555;DHT22;7364;50.870;4.722;2023-07-13T02:49:59;17.20;99.90
14555;DHT22;7364;50.870;4.722;2023-07-13T02:52:26;17.20;99.90
14555;DHT22;7364;50.870;4.722;2023-07-13T02:54:54;17.20;99.90
14555;DHT22;7364;50.870;4.722;2023-07-13T02:57:21;17.20;99.90
14555;DHT22;7364;50.870;4.722;2023-07-13T02:59:48;17.10;99.90
14555;DHT22;7364;50.870;4.722;2023-07-13T03:02:15;17.00;99.90
14555;DHT22;7364;50.870;4.722;2023-07-13T03:04:44;17.10;99.90
14555;DHT22;7364;50.870;4.722;2023-07-13T03:07:11;17.10;99.90
14555;DHT22;7364;50.870;4.722;2023-07-13T03:09:39;17.00;99.90
14555;DHT22;7364;50.870;4.722;2023-07-13T03:12:07;16.80;99.90
14555;DHT22;7364;50.870;4.722;2023-07-13T03:14:35;16.90;99.90
14555;DHT22;7364;50.870;4.722;2023-07-13T03:17:02;16.90;99.90
14555;DHT22;7364;50.870;4.722;2023-07-13T03:19:29;16.90;99.90
14555;DHT22;7364;50.870;4.722;2023-07-13T03:21:58;17.00;99.90
14555;DHT22;7364;50.870;4.722;2023-07-13T03:24:25;17.20;99.90
14555;DHT22;7364;50.870;4.722;2023-07-13T03:26:53;17.30;99.90
14555;DHT22;7364;50.870;4.722;2023-07-13T03:29:20;17.30;99.90
14555;DHT22;7364;50.870;4.722;2023-07-13T03:31:47;17.10;99.90
14555;DHT22;7364;50.870;4.722;2023-07-13T03:34:14;17.20;99.90
14555;DHT22;7364;50.870;4.722;2023-07-13T03:36:42;17.30;99.90
14555;DHT22;7364;50.870;4.722;2023-07-13T03:39:10;17.50;99.90
14555;DHT22;7364;50.870;4.722;2023-07-13T03:41:38;17.30;99.90
14555;DHT22;7364;50.870;4.722;2023-07-13T03:44:05;17.20;99.90
14555;DHT22;7364;50.870;4.722;2023-07-13T03:46:32;17.00;99.90
14555;DHT22;7364;50.870;4.722;2023-07-13T03:49:00;17.00;99.90
14555;DHT22;7364;50.870;4.722;2023-07-13T03:51:28;17.00;99.90
14555;DHT22;7364;50.870;4.722;2023-07-13T03:53:55;17.00;99.90
14555;DHT22;7364;50.870;4.722;2023-07-13T03:56:24;17.00;99.90
14555;DHT22;7364;50.870;4.722;2023-07-13T03:58:52;17.10;99.90
14555;DHT22;7364;50.870;4.722;2023-07-13T04:01:21;17.10;99.90
14555;DHT22;7364;50.870;4.722;2023-07-13T04:03:49;17.10;99.90
14555;DHT22;7364;50.870;4.722;2023-07-13T04:06:18;17.00;99.90
14555;DHT22;7364;50.870;4.722;2023-07-13T04:08:48;16.90;99.90
14555;DHT22;7364;50.870;4.722;2023-07-13T04:11:17;16.90;99.90
14555;DHT22;7364;50.870;4.722;2023-07-13T04:13:47;16.90;99.90
14555;DHT22;7364;50.870;4.722;2023-07-13T04:16:14;17.00;99.90
14555;DHT22;7364;50.870;4.722;2023-07-13T04:18:42;17.00;99.90
14555;DHT22;7364;50.870;4.722;2023-07-13T04:21:10;16.80;99.90
14555;DHT22;7364;50.870;4.722;2023-07-13T04:23:38;17.00;99.90
14555;DHT22;7364;50.870;4.722;2023-07-13T04:26:05;16.90;99.90
14555;DHT22;7364;50.870;4.722;2023-07-13T04:28:33;16.90;99.90
14555;DHT22;7364;50.870;4.722;2023-07-13T04:31:03;16.90;99.90
14555;DHT22;7364;50.870;4.722;2023-07-13T04:33:30;16.90;99.90
14555;DHT22;7364;50.870;4.722;2023-07-13T04:35:58;16.90;99.90
14555;DHT22;7364;50.870;4.722;2023-07-13T04:38:28;16.90;99.90
14555;DHT22;7364;50.870;4.722;2023-07-13T04:40:59;16.90;99.90
14555;DHT22;7364;50.870;4.722;2023-07-13T04:43:28;16.90;99.90
14555;DHT22;7364;50.870;4.722;2023-07-13T04:45:56;16.90;99.90
14555;DHT22;7364;50.870;4.722;2023-07-13T04:48:25;17.10;99.90
14555;DHT22;7364;50.870;4.722;2023-07-13T04:50:56;17.10;99.90
14555;DHT22;7364;50.870;4.722;2023-07-13T04:53:24;17.20;99.90
14555;DHT22;7364;50.870;4.722;2023-07-13T04:55:52;17.10;99.90
14555;DHT22;7364;50.870;4.722;2023-07-13T04:58:20;17.10;99.90
14555;DHT22;7364;50.870;4.722;2023-07-13T05:00:48;17.00;99.90
14555;DHT22;7364;50.870;4.722;2023-07-13T05:03:15;17.00;99.90
14555;DHT22;7364;50.870;4.722;2023-07-13T05:05:55;17.10;99.90
14555;DHT22;7364;50.870;4.722;2023-07-13T05:08:23;17.30;99.90
14555;DHT22;7364;50.870;4.722;2023-07-13T05:10:50;17.20;99.90
14555;DHT22;7364;50.870;4.722;2023-07-13T05:13:18;17.10;99.90
14555;DHT22;7364;50.870;4.722;2023-07-13T05:15:45;17.30;99.90
14555;DHT22;7364;50.870;4.722;2023-07-13T05:18:12;17.40;99.90
14555;DHT22;7364;50.870;4.722;2023-07-13T05:20:40;17.70;99.90
14555;DHT22;7364;50.870;4.722;2023-07-13T05:23:09;17.80;99.90
14555;DHT22;7364;50.870;4.722;2023-07-13T05:25:36;17.90;99.90
14555;DHT22;7364;50.870;4.722;2023-07-13T05:28:04;17.90;99.90
14555;DHT22;7364;50.870;4.722;2023-07-13T05:30:31;17.80;99.90
14555;DHT22;7364;50.870;4.722;2023-07-13T05:32:59;17.70;99.90
14555;DHT22;7364;50.870;4.722;2023-07-13T05:35:27;17.90;99.90
14555;DHT22;7364;50.870;4.722;2023-07-13T05:37:54;18.10;99.90
14555;DHT22;7364;50.870;4.722;2023-07-13T05:40:23;18.10;99.90
14555;DHT22;7364;50.870;4.722;2023-07-13T05:42:50;18.20;99.90
14555;DHT22;7364;50.870;4.722;2023-07-13T05:45:18;18.10;99.90
14555;DHT22;7364;50.870;4.722;2023-07-13T05:47:45;18.30;99.90
14555;DHT22;7364;50.870;4.722;2023-07-13T05:50:12;18.50;99.90
14555;DHT22;7364;50.870;4.722;2023-07-13T05:52:40;18.50;99.90
14555;DHT22;7364;50.870;4.722;2023-07-13T05:55:08;18.50;99.90
14555;DHT22;7364;50.870;4.722;2023-07-13T05:57:37;18.50;99.90
14555;DHT22;7364;50.870;4.722;2023-07-13T06:00:05;18.10;99.90
14555;DHT22;7364;50.870;4.722;2023-07-13T06:02:33;18.10;99.90
14555;DHT22;7364;50.870;4.722;2023-07-13T06:05:00;18.10;99.90
14555;DHT22;7364;50.870;4.722;2023-07-13T06:07:27;18.10;99.90
14555;DHT22;7364;50.870;4.722;2023-07-13T06:10:09;18.10;99.90
14555;DHT22;7364;50.870;4.722;2023-07-13T06:12:53;18.10;99.90
14555;DHT22;7364;50.870;4.722;2023-07-13T06:15:34;18.10;99.90
14555;DHT22;7364;50.870;4.722;2023-07-13T06:18:03;18.10;99.90
14555;DHT22;7364;50.870;4.722;2023-07-13T06:20:55;18.30;99.90
14555;DHT22;7364;50.870;4.722;2023-07-13T06:23:24;18.70;99.90
14555;DHT22;7364;50.870;4.722;2023-07-13T06:25:52;19.00;99.90
14555;DHT22;7364;50.870;4.722;2023-07-13T06:28:35;19.00;99.90
14555;DHT22;7364;50.870;4.722;2023-07-13T06:31:06;18.90;99.90
14555;DHT22;7364;50.870;4.722;2023-07-13T06:33:47;18.90;99.90
14555;DHT22;7364;50.870;4.722;2023-07-13T06:36:15;19.20;99.90
14555;DHT22;7364;50.870;4.722;2023-07-13T06:38:56;19.40;99.90
14555;DHT22;7364;50.870;4.722;2023-07-13T06:41:31;19.20;99.90
14555;DHT22;7364;50.870;4.722;2023-07-13T06:44:23;19.20;99.90
14555;DHT22;7364;50.870;4.722;2023-07-13T06:46:51;19.20;99.90
14555;DHT22;7364;50.870;4.722;2023-07-13T06:49:20;18.90;99.90
14555;DHT22;7364;50.870;4.722;2023-07-13T06:51:48;19.20;99.90
14555;DHT22;7364;50.870;4.722;2023-07-13T06:54:17;19.50;99.90
14555;DHT22;7364;50.870;4.722;2023-07-13T06:56:46;20.00;99.90
14555;DHT22;7364;50.870;4.722;2023-07-13T06:59:28;20.10;99.90
14555;DHT22;7364;50.870;4.722;2023-07-13T07:01:55;20.40;99.90
14555;DHT22;7364;50.870;4.722;2023-07-13T07:04:36;20.70;99.90
14555;DHT22;7364;50.870;4.722;2023-07-13T07:07:04;20.30;99.90
14555;DHT22;7364;50.870;4.722;2023-07-13T07:09:33;20.40;99.90
14555;DHT22;7364;50.870;4.722;2023-07-13T07:12:02;20.60;99.90
14555;DHT22;7364;50.870;4.722;2023-07-13T07:14:33;20.80;99.90
14555;DHT22;7364;50.870;4.722;2023-07-13T07:17:10;21.00;99.90
14555;DHT22;7364;50.870;4.722;2023-07-13T07:19:51;21.10;99.90
14555;DHT22;7364;50.870;4.722;2023-07-13T07:22:19;21.20;99.90
14555;DHT22;7364;50.870;4.722;2023-07-13T07:25:00;21.60;99.90
14555;DHT22;7364;50.870;4.722;2023-07-13T07:27:30;21.60;99.90
14555;DHT22;7364;50.870;4.722;2023-07-13T07:30:09;21.90;99.90
14555;DHT22;7364;50.870;4.722;2023-07-13T07:32:50;21.90;99.90
14555;DHT22;7364;50.870;4.722;2023-07-13T07:35:18;21.80;99.90
14555;DHT22;7364;50.870;4.722;2023-07-13T07:37:58;21.90;99.90
14555;DHT22;7364;50.870;4.722;2023-07-13T07:40:37;21.80;99.90
14555;DHT22;7364;50.870;4.722;2023-07-13T07:43:18;21.80;99.90
14555;DHT22;7364;50.870;4.722;2023-07-13T07:52:03;21.70;99.90
14555;DHT22;7364;50.870;4.722;2023-07-13T07:54:33;21.70;99.90
14555;DHT22;7364;50.870;4.722;2023-07-13T07:57:00;21.60;99.90
14555;DHT22;7364;50.870;4.722;2023-07-13T07:59:28;21.30;99.90
14555;DHT22;7364;50.870;4.722;2023-07-13T08:01:56;21.10;99.90
14555;DHT22;7364;50.870;4.722;2023-07-13T08:04:23;20.90;99.90
14555;DHT22;7364;50.870;4.722;2023-07-13T08:06:50;21.00;99.90
14555;DHT22;7364;50.870;4.722;2023-07-13T08:09:30;21.20;99.90
14555;DHT22;7364;50.870;4.722;2023-07-13T08:11:57;21.40;99.90
14555;DHT22;7364;50.870;4.722;2023-07-13T08:14:24;21.40;99.90
14555;DHT22;7364;50.870;4.722;2023-07-13T08:16:51;21.20;99.90
14555;DHT22;7364;50.870;4.722;2023-07-13T08:19:19;21.30;99.90
14555;DHT22;7364;50.870;4.722;2023-07-13T08:21:46;21.50;99.90
14555;DHT22;7364;50.870;4.722;2023-07-13T08:24:15;21.80;99.90
14555;DHT22;7364;50.870;4.722;2023-07-13T08:26:46;22.10;99.90
14555;DHT22;7364;50.870;4.722;2023-07-13T08:29:14;22.40;99.90
14555;DHT22;7364;50.870;4.722;2023-07-13T08:31:55;22.50;99.90
14555;DHT22;7364;50.870;4.722;2023-07-13T08:34:24;22.60;99.90
14555;DHT22;7364;50.870;4.722;2023-07-13T08:37:05;22.70;99.90
14555;DHT22;7364;50.870;4.722;2023-07-13T08:39:35;22.50;99.90
14555;DHT22;7364;50.870;4.722;2023-07-13T08:42:26;22.60;99.90
14555;DHT22;7364;50.870;4.722;2023-07-13T08:45:13;22.70;99.90
14555;DHT22;7364;50.870;4.722;2023-07-13T08:47:47;22.60;99.90
14555;DHT22;7364;50.870;4.722;2023-07-13T08:50:19;22.30;99.90
14555;DHT22;7364;50.870;4.722;2023-07-13T08:52:48;22.00;99.90
14555;DHT22;7364;50.870;4.722;2023-07-13T08:55:17;21.70;99.90
14555;DHT22;7364;50.870;4.722;2023-07-13T08:57:50;21.80;99.90
14555;DHT22;7364;50.870;4.722;2023-07-13T09:00:20;22.10;99.90
14555;DHT22;7364;50.870;4.722;2023-07-13T09:02:52;22.10;99.90
14555;DHT22;7364;50.870;4.722;2023-07-13T09:05:26;22.50;99.90
14555;DHT22;7364;50.870;4.722;2023-07-13T09:08:09;22.50;99.90
14555;DHT22;7364;50.870;4.722;2023-07-13T09:10:45;22.40;99.90
14555;DHT22;7364;50.870;4.722;2023-07-13T09:13:23;22.60;99.90
14555;DHT22;7364;50.870;4.722;2023-07-13T09:15:54;22.80;99.90
14555;DHT22;7364;50.870;4.722;2023-07-13T09:18:28;22.80;99.90
14555;DHT22;7364;50.870;4.722;2023-07-13T09:21:00;22.80;99.90
14555;DHT22;7364;50.870;4.722;2023-07-13T09:23:30;22.40;99.90
14555;DHT22;7364;50.870;4.722;2023-07-13T09:26:03;22.40;99.90
14555;DHT22;7364;50.870;4.722;2023-07-13T09:28:40;22.50;99.90
14555;DHT22;7364;50.870;4.722;2023-07-13T09:31:14;22.40;99.90
14555;DHT22;7364;50.870;4.722;2023-07-13T09:33:42;22.50;99.90
14555;DHT22;7364;50.870;4.722;2023-07-13T09:36:19;22.50;99.90
14555;DHT22;7364;50.870;4.722;2023-07-13T09:38:48;22.20;99.90
14555;DHT22;7364;50.870;4.722;2023-07-13T09:41:26;22.30;99.90
14555;DHT22;7364;50.870;4.722;2023-07-13T09:44:09;22.70;99.90
14555;DHT22;7364;50.870;4.722;2023-07-13T09:46:39;22.60;99.90
14555;DHT22;7364;50.870;4.722;2023-07-13T09:49:09;22.90;99.40
14555;DHT22;7364;50.870;4.722;2023-07-13T09:51:37;22.20;99.50
14555;DHT22;7364;50.870;4.722;2023-07-13T09:54:04;22.00;99.90
14555;DHT22;7364;50.870;4.722;2023-07-13T09:56:31;22.30;99.90
14555;DHT22;7364;50.870;4.722;2023-07-13T09:58:59;22.40;99.90
14555;DHT22;7364;50.870;4.722;2023-07-13T10:01:35;22.90;99.10
14555;DHT22;7364;50.870;4.722;2023-07-13T10:04:11;22.80;98.50
14555;DHT22;7364;50.870;4.722;2023-07-13T10:06:40;22.60;98.30
14555;DHT22;7364;50.870;4.722;2023-07-13T10:09:09;22.90;98.40
14555;DHT22;7364;50.870;4.722;2023-07-13T10:11:38;23.10;97.50
14555;DHT22;7364;50.870;4.722;2023-07-13T10:14:13;23.40;98.20
14555;DHT22;7364;50.870;4.722;2023-07-13T10:16:44;23.50;97.10
14555;DHT22;7364;50.870;4.722;2023-07-13T10:19:15;23.50;96.20
14555;DHT22;7364;50.870;4.722;2023-07-13T10:21:50;23.70;96.50
14555;DHT22;7364;50.870;4.722;2023-07-13T10:24:21;23.90;96.10
14555;DHT22;7364;50.870;4.722;2023-07-13T10:26:53;23.90;95.70
14555;DHT22;7364;50.870;4.722;2023-07-13T10:29:23;24.00;95.20
14555;DHT22;7364;50.870;4.722;2023-07-13T10:31:54;24.20;95.10
14555;DHT22;7364;50.870;4.722;2023-07-13T10:34:25;24.20;95.30
14555;DHT22;7364;50.870;4.722;2023-07-13T10:36:57;24.20;95.80
14555;DHT22;7364;50.870;4.722;2023-07-13T10:39:27;23.60;95.40
14555;DHT22;7364;50.870;4.722;2023-07-13T10:41:59;23.20;97.00
14555;DHT22;7364;50.870;4.722;2023-07-13T10:44:29;23.50;97.30
14555;DHT22;7364;50.870;4.722;2023-07-13T10:47:01;23.50;95.90
14555;DHT22;7364;50.870;4.722;2023-07-13T10:49:30;23.90;96.40
14555;DHT22;7364;50.870;4.722;2023-07-13T10:52:00;23.60;95.10
14555;DHT22;7364;50.870;4.722;2023-07-13T10:54:31;23.30;96.50
14555;DHT22;7364;50.870;4.722;2023-07-13T10:57:23;23.40;97.20
14555;DHT22;7364;50.870;4.722;2023-07-13T11:00:13;23.70;95.40
14555;DHT22;7364;50.870;4.722;2023-07-13T11:02:43;23.70;96.20
14555;DHT22;7364;50.870;4.722;2023-07-13T11:05:26;23.70;95.80
14555;DHT22;7364;50.870;4.722;2023-07-13T11:08:20;24.00;95.20
14555;DHT22;7364;50.870;4.722;2023-07-13T11:10:58;24.10;95.10
14555;DHT22;7364;50.870;4.722;2023-07-13T11:13:56;24.60;94.00
14555;DHT22;7364;50.870;4.722;2023-07-13T11:16:42;25.00;92.50
14555;DHT22;7364;50.870;4.722;2023-07-13T11:19:42;24.90;92.70
14555;DHT22;7364;50.870;4.722;2023-07-13T11:22:26;24.90;92.20
14555;DHT22;7364;50.870;4.722;2023-07-13T11:25:25;25.40;91.20
14555;DHT22;7364;50.870;4.722;2023-07-13T11:28:12;25.00;91.50
14555;DHT22;7364;50.870;4.722;2023-07-13T11:30:43;24.80;92.20
14555;DHT22;7364;50.870;4.722;2023-07-13T11:33:14;25.00;92.00
14555;DHT22;7364;50.870;4.722;2023-07-13T11:35:51;25.30;90.20
14555;DHT22;7364;50.870;4.722;2023-07-13T11:38:21;25.70;89.90
14555;DHT22;7364;50.870;4.722;2023-07-13T11:40:51;26.40;86.60
14555;DHT22;7364;50.870;4.722;2023-07-13T11:43:20;26.70;86.10
14555;DHT22;7364;50.870;4.722;2023-07-13T11:45:49;26.60;83.90
14555;DHT22;7364;50.870;4.722;2023-07-13T11:48:25;25.80;90.00
14555;DHT22;7364;50.870;4.722;2023-07-13T11:50:57;25.60;88.30
14555;DHT22;7364;50.870;4.722;2023-07-13T11:53:28;25.80;88.50
14555;DHT22;7364;50.870;4.722;2023-07-13T11:55:57;26.00;90.00
14555;DHT22;7364;50.870;4.722;2023-07-13T11:58:26;26.30;88.90
14555;DHT22;7364;50.870;4.722;2023-07-13T12:00:56;26.80;87.70
14555;DHT22;7364;50.870;4.722;2023-07-13T12:03:30;27.70;84.60
14555;DHT22;7364;50.870;4.722;2023-07-13T12:06:02;27.80;80.60
14555;DHT22;7364;50.870;4.722;2023-07-13T12:08:32;28.30;79.00
14555;DHT22;7364;50.870;4.722;2023-07-13T12:11:09;27.90;80.30
14555;DHT22;7364;50.870;4.722;2023-07-13T12:13:41;28.80;79.00
14555;DHT22;7364;50.870;4.722;2023-07-13T12:16:15;28.90;73.70
14555;DHT22;7364;50.870;4.722;2023-07-13T12:18:43;28.70;74.90
14555;DHT22;7364;50.870;4.722;2023-07-13T12:21:18;28.30;77.30
14555;DHT22;7364;50.870;4.722;2023-07-13T12:23:49;26.50;76.20
14555;DHT22;7364;50.870;4.722;2023-07-13T12:26:18;25.60;82.30
14555;DHT22;7364;50.870;4.722;2023-07-13T12:28:47;24.90;83.80
14555;DHT22;7364;50.870;4.722;2023-07-13T12:31:31;25.00;84.80
14555;DHT22;7364;50.870;4.722;2023-07-13T12:34:00;25.10;85.10
14555;DHT22;7364;50.870;4.722;2023-07-13T12:36:34;25.10;85.80
14555;DHT22;7364;50.870;4.722;2023-07-13T12:39:10;24.90;87.70
14555;DHT22;7364;50.870;4.722;2023-07-13T12:41:40;24.60;83.70
14555;DHT22;7364;50.870;4.722;2023-07-13T12:44:14;24.30;84.30
14555;DHT22;7364;50.870;4.722;2023-07-13T12:46:53;23.90;84.70
14555;DHT22;7364;50.870;4.722;2023-07-13T12:49:27;23.70;86.90
14555;DHT22;7364;50.870;4.722;2023-07-13T12:52:02;23.70;90.80
14555;DHT22;7364;50.870;4.722;2023-07-13T12:54:30;23.60;88.60
14555;DHT22;7364;50.870;4.722;2023-07-13T12:56:59;23.80;88.00
14555;DHT22;7364;50.870;4.722;2023-07-13T12:59:31;23.90;87.80
14555;DHT22;7364;50.870;4.722;2023-07-13T13:02:02;23.40;92.30
14555;DHT22;7364;50.870;4.722;2023-07-13T13:04:43;23.10;93.10
14555;DHT22;7364;50.870;4.722;2023-07-13T13:07:13;23.30;93.60
14555;DHT22;7364;50.870;4.722;2023-07-13T13:09:40;23.10;92.30
14555;DHT22;7364;50.870;4.722;2023-07-13T13:12:08;23.10;92.70
14555;DHT22;7364;50.870;4.722;2023-07-13T13:14:36;23.10;92.80
14555;DHT22;7364;50.870;4.722;2023-07-13T13:17:18;22.60;93.00
14555;DHT22;7364;50.870;4.722;2023-07-13T13:19:46;22.20;94.00
14555;DHT22;7364;50.870;4.722;2023-07-13T13:22:14;22.20;95.00
14555;DHT22;7364;50.870;4.722;2023-07-13T13:24:42;22.20;95.20
14555;DHT22;7364;50.870;4.722;2023-07-13T13:27:15;22.30;95.20
14555;DHT22;7364;50.870;4.722;2023-07-13T13:29:45;22.20;96.10
14555;DHT22;7364;50.870;4.722;2023-07-13T13:32:16;21.70;98.00
14555;DHT22;7364;50.870;4.722;2023-07-13T13:34:44;21.30;99.90
14555;DHT22;7364;50.870;4.722;2023-07-13T13:37:22;21.10;99.90
14555;DHT22;7364;50.870;4.722;2023-07-13T13:39:52;21.10;99.90
14555;DHT22;7364;50.870;4.722;2023-07-13T13:42:33;21.20;99.90
14555;DHT22;7364;50.870;4.722;2023-07-13T13:45:00;21.30;99.90
14555;DHT22;7364;50.870;4.722;2023-07-13T13:47:31;21.80;99.90
14555;DHT22;7364;50.870;4.722;2023-07-13T13:49:59;22.60;99.90
14555;DHT22;7364;50.870;4.722;2023-07-13T13:52:27;23.90;98.80
14555;DHT22;7364;50.870;4.722;2023-07-13T13:54:55;25.40;96.10
14555;DHT22;7364;50.870;4.722;2023-07-13T13:57:23;26.00;92.80
14555;DHT22;7364;50.870;4.722;2023-07-13T13:59:51;25.70;92.40
14555;DHT22;7364;50.870;4.722;2023-07-13T14:02:23;25.50;91.70
14555;DHT22;7364;50.870;4.722;2023-07-13T14:04:58;25.10;93.30
14555;DHT22;7364;50.870;4.722;2023-07-13T14:07:28;24.80;92.90
14555;DHT22;7364;50.870;4.722;2023-07-13T14:09:58;24.60;93.20
14555;DHT22;7364;50.870;4.722;2023-07-13T14:12:26;24.60;93.20
14555;DHT22;7364;50.870;4.722;2023-07-13T14:14:54;24.80;93.50
14555;DHT22;7364;50.870;4.722;2023-07-13T14:17:24;24.70;93.20
14555;DHT22;7364;50.870;4.722;2023-07-13T14:19:52;25.10;92.80
14555;DHT22;7364;50.870;4.722;2023-07-13T14:22:31;25.90;91.90
14555;DHT22;7364;50.870;4.722;2023-07-13T14:24:58;27.30;90.10
14555;DHT22;7364;50.870;4.722;2023-07-13T14:27:26;27.10;84.70
14555;DHT22;7364;50.870;4.722;2023-07-13T14:29:55;26.00;87.60
14555;DHT22;7364;50.870;4.722;2023-07-13T14:32:23;25.60;90.50
14555;DHT22;7364;50.870;4.722;2023-07-13T14:34:50;25.20;90.90
14555;DHT22;7364;50.870;4.722;2023-07-13T14:37:18;25.30;91.10
14555;DHT22;7364;50.870;4.722;2023-07-13T14:39:50;25.60;91.00
14555;DHT22;7364;50.870;4.722;2023-07-13T14:42:18;25.80;87.60
14555;DHT22;7364;50.870;4.722;2023-07-13T14:44:46;26.80;88.80
14555;DHT22;7364;50.870;4.722;2023-07-13T14:47:13;26.40;86.10
14555;DHT22;7364;50.870;4.722;2023-07-13T14:49:42;27.40;87.00
14555;DHT22;7364;50.870;4.722;2023-07-13T14:52:14;28.30;84.10
14555;DHT22;7364;50.870;4.722;2023-07-13T14:54:43;29.10;80.00
14555;DHT22;7364;50.870;4.722;2023-07-13T14:57:14;28.80;78.50
14555;DHT22;7364;50.870;4.722;2023-07-13T14:59:42;27.30;82.30
14555;DHT22;7364;50.870;4.722;2023-07-13T15:02:26;27.00;84.50
14555;DHT22;7364;50.870;4.722;2023-07-13T15:04:55;26.50;84.30
14555;DHT22;7364;50.870;4.722;2023-07-13T15:07:22;25.20;87.80
14555;DHT22;7364;50.870;4.722;2023-07-13T15:09:49;25.00;90.20
14555;DHT22;7364;50.870;4.722;2023-07-13T15:12:19;25.10;90.10
14555;DHT22;7364;50.870;4.722;2023-07-13T15:14:46;25.40;89.50
14555;DHT22;7364;50.870;4.722;2023-07-13T15:17:24;25.50;88.60
14555;DHT22;7364;50.870;4.722;2023-07-13T15:19:53;25.20;88.40
14555;DHT22;7364;50.870;4.722;2023-07-13T15:22:22;25.00;89.90
14555;DHT22;7364;50.870;4.722;2023-07-13T15:24:49;25.30;87.10
14555;DHT22;7364;50.870;4.722;2023-07-13T15:27:18;25.80;86.90
14555;DHT22;7364;50.870;4.722;2023-07-13T15:29:46;26.60;83.40
14555;DHT22;7364;50.870;4.722;2023-07-13T15:32:13;26.70;85.10
14555;DHT22;7364;50.870;4.722;2023-07-13T15:34:41;26.70;83.90
14555;DHT22;7364;50.870;4.722;2023-07-13T15:37:13;26.80;82.50
14555;DHT22;7364;50.870;4.722;2023-07-13T15:39:41;27.00;79.80
14555;DHT22;7364;50.870;4.722;2023-07-13T15:42:13;26.70;81.60
14555;DHT22;7364;50.870;4.722;2023-07-13T15:44:42;27.00;82.10
14555;DHT22;7364;50.870;4.722;2023-07-13T15:47:11;27.00;79.00
14555;DHT22;7364;50.870;4.722;2023-07-13T15:49:40;26.90;81.10
14555;DHT22;7364;50.870;4.722;2023-07-13T15:52:16;26.80;80.30
14555;DHT22;7364;50.870;4.722;2023-07-13T15:54:43;27.40;81.20
14555;DHT22;7364;50.870;4.722;2023-07-13T15:57:14;27.50;80.10
14555;DHT22;7364;50.870;4.722;2023-07-13T15:59:45;28.10;79.30
14555;DHT22;7364;50.870;4.722;2023-07-13T16:02:16;28.50;79.20
14555;DHT22;7364;50.870;4.722;2023-07-13T16:04:44;28.80;78.50
14555;DHT22;7364;50.870;4.722;2023-07-13T16:07:11;28.30;76.00
14555;DHT22;7364;50.870;4.722;2023-07-13T16:09:40;28.10;77.10
14555;DHT22;7364;50.870;4.722;2023-07-13T16:12:10;28.70;75.50
14555;DHT22;7364;50.870;4.722;2023-07-13T16:14:38;29.00;73.80
14555;DHT22;7364;50.870;4.722;2023-07-13T16:17:09;28.70;75.90